sensor_id;sensor_type;location;lat;lon;timestamp;P1;durP1;ratioP1;P2;durP2;ratioP2
9076;SDS011;4574;51.072;17.174;2022-07-24T00:01:41;7.27;;;6.50;;
9076;SDS011;4574;51.072;17.174;2022-07-24T00:04:10;7.37;;;6.67;;
9076;SDS011;4574;51.072;17.174;2022-07-24T00:06:39;7.73;;;6.40;;
9076;SDS011;4574;51.072;17.174;2022-07-24T00:09:09;13.17;;;6.33;;
9076;SDS011;4574;51.072;17.174;2022-07-24T00:11:37;7.00;;;6.30;;
9076;SDS011;4574;51.072;17.174;2022-07-24T00:14:06;7.47;;;6.77;;
9076;SDS011;4574;51.072;17.174;2022-07-24T00:16:36;6.60;;;5.93;;
9076;SDS011;4574;51.072;17.174;2022-07-24T00:19:05;6.83;;;6.23;;
9076;SDS011;4574;51.072;17.174;2022-07-24T00:21:34;7.07;;;6.37;;
9076;SDS011;4574;51.072;17.174;2022-07-24T00:24:02;6.80;;;6.10;;
9076;SDS011;4574;51.072;17.174;2022-07-24T00:26:33;6.93;;;6.33;;
9076;SDS011;4574;51.072;17.174;2022-07-24T00:29:02;6.90;;;6.30;;
9076;SDS011;4574;51.072;17.174;2022-07-24T00:31:32;9.97;;;6.33;;
9076;SDS011;4574;51.072;17.174;2022-07-24T00:34:01;6.27;;;5.77;;
9076;SDS011;4574;51.072;17.174;2022-07-24T00:36:29;8.93;;;6.67;;
9076;SDS011;4574;51.072;17.174;2022-07-24T00:38:58;10.40;;;7.47;;
9076;SDS011;4574;51.072;17.174;2022-07-24T00:41:27;8.87;;;7.83;;
9076;SDS011;4574;51.072;17.174;2022-07-24T00:44:03;8.67;;;7.77;;
9076;SDS011;4574;51.072;17.174;2022-07-24T00:46:34;16.37;;;11.23;;
9076;SDS011;4574;51.072;17.174;2022-07-24T00:49:04;18.23;;;13.17;;
9076;SDS011;4574;51.072;17.174;2022-07-24T00:51:47;13.70;;;11.20;;
9076;SDS011;4574;51.072;17.174;2022-07-24T00:54:17;12.83;;;10.40;;
9076;SDS011;4574;51.072;17.174;2022-07-24T00:56:48;14.77;;;10.93;;
9076;SDS011;4574;51.072;17.174;2022-07-24T00:59:20;10.17;;;8.43;;
9076;SDS011;4574;51.072;17.174;2022-07-24T01:01:49;10.27;;;8.10;;
9076;SDS011;4574;51.072;17.174;2022-07-24T01:04:18;10.70;;;8.27;;
9076;SDS011;4574;51.072;17.174;2022-07-24T01:06:47;10.17;;;8.30;;
9076;SDS011;4574;51.072;17.174;2022-07-24T01:09:16;8.30;;;7.10;;
9076;SDS011;4574;51.072;17.174;2022-07-24T01:11:46;8.77;;;7.33;;
9076;SDS011;4574;51.072;17.174;2022-07-24T01:14:15;8.60;;;7.50;;
9076;SDS011;4574;51.072;17.174;2022-07-24T01:16:46;9.47;;;8.57;;
9076;SDS011;4574;51.072;17.174;2022-07-24T01:19:14;12.50;;;8.93;;
9076;SDS011;4574;51.072;17.174;2022-07-24T01:21:48;13.20;;;10.80;;
9076;SDS011;4574;51.072;17.174;2022-07-24T01:24:17;10.90;;;9.87;;
9076;SDS011;4574;51.072;17.174;2022-07-24T01:26:46;12.40;;;10.63;;
9076;SDS011;4574;51.072;17.174;2022-07-24T01:29:16;12.67;;;10.83;;
9076;SDS011;4574;51.072;17.174;2022-07-24T01:31:45;13.20;;;11.07;;
9076;SDS011;4574;51.072;17.174;2022-07-24T01:34:13;14.43;;;11.40;;
9076;SDS011;4574;51.072;17.174;2022-07-24T01:36:42;12.97;;;11.50;;
9076;SDS011;4574;51.072;17.174;2022-07-24T01:39:12;12.20;;;11.00;;
9076;SDS011;4574;51.072;17.174;2022-07-24T01:41:41;13.10;;;10.40;;
9076;SDS011;4574;51.072;17.174;2022-07-24T01:44:09;12.07;;;10.90;;
9076;SDS011;4574;51.072;17.174;2022-07-24T01:46:38;11.77;;;10.60;;
9076;SDS011;4574;51.072;17.174;2022-07-24T01:49:06;11.53;;;10.47;;
9076;SDS011;4574;51.072;17.174;2022-07-24T01:51:37;12.30;;;11.03;;
9076;SDS011;4574;51.072;17.174;2022-07-24T01:54:06;11.97;;;10.30;;
9076;SDS011;4574;51.072;17.174;2022-07-24T01:56:35;12.80;;;11.40;;
9076;SDS011;4574;51.072;17.174;2022-07-24T01:59:04;14.87;;;10.67;;
9076;SDS011;4574;51.072;17.174;2022-07-24T02:01:36;11.37;;;10.27;;
9076;SDS011;4574;51.072;17.174;2022-07-24T02:04:04;11.87;;;10.63;;
9076;SDS011;4574;51.072;17.174;2022-07-24T02:06:33;12.27;;;11.07;;
9076;SDS011;4574;51.072;17.174;2022-07-24T02:09:02;12.03;;;10.43;;
9076;SDS011;4574;51.072;17.174;2022-07-24T02:11:32;14.40;;;11.37;;
9076;SDS011;4574;51.072;17.174;2022-07-24T02:14:02;11.73;;;10.50;;
9076;SDS011;4574;51.072;17.174;2022-07-24T02:16:30;11.77;;;10.57;;
9076;SDS011;4574;51.072;17.174;2022-07-24T02:19:00;11.97;;;10.77;;
9076;SDS011;4574;51.072;17.174;2022-07-24T02:21:29;11.30;;;10.10;;
9076;SDS011;4574;51.072;17.174;2022-07-24T02:23:58;13.93;;;11.53;;
9076;SDS011;4574;51.072;17.174;2022-07-24T02:26:26;12.87;;;10.93;;
9076;SDS011;4574;51.072;17.174;2022-07-24T02:28:55;13.70;;;11.13;;
9076;SDS011;4574;51.072;17.174;2022-07-24T02:31:25;12.50;;;11.30;;
9076;SDS011;4574;51.072;17.174;2022-07-24T02:33:53;13.03;;;11.63;;
9076;SDS011;4574;51.072;17.174;2022-07-24T02:36:22;15.50;;;12.53;;
9076;SDS011;4574;51.072;17.174;2022-07-24T02:38:50;14.00;;;12.00;;
9076;SDS011;4574;51.072;17.174;2022-07-24T02:41:19;12.90;;;11.60;;
9076;SDS011;4574;51.072;17.174;2022-07-24T02:43:48;15.50;;;12.37;;
9076;SDS011;4574;51.072;17.174;2022-07-24T02:46:16;13.60;;;12.20;;
9076;SDS011;4574;51.072;17.174;2022-07-24T02:48:46;13.40;;;11.50;;
9076;SDS011;4574;51.072;17.174;2022-07-24T02:51:15;13.23;;;11.80;;
9076;SDS011;4574;51.072;17.174;2022-07-24T02:53:43;13.47;;;12.07;;
9076;SDS011;4574;51.072;17.174;2022-07-24T02:56:12;14.33;;;11.70;;
9076;SDS011;4574;51.072;17.174;2022-07-24T02:58:40;14.27;;;12.57;;
9076;SDS011;4574;51.072;17.174;2022-07-24T03:01:09;14.57;;;12.90;;
9076;SDS011;4574;51.072;17.174;2022-07-24T03:03:38;13.90;;;12.50;;
9076;SDS011;4574;51.072;17.174;2022-07-24T03:06:08;14.97;;;11.57;;
9076;SDS011;4574;51.072;17.174;2022-07-24T03:08:36;14.27;;;12.87;;
9076;SDS011;4574;51.072;17.174;2022-07-24T03:11:05;13.13;;;11.73;;
9076;SDS011;4574;51.072;17.174;2022-07-24T03:13:34;12.63;;;11.43;;
9076;SDS011;4574;51.072;17.174;2022-07-24T03:16:02;12.77;;;11.47;;
9076;SDS011;4574;51.072;17.174;2022-07-24T03:18:31;13.03;;;11.73;;
9076;SDS011;4574;51.072;17.174;2022-07-24T03:21:00;13.93;;;11.67;;
9076;SDS011;4574;51.072;17.174;2022-07-24T03:23:30;12.73;;;10.90;;
9076;SDS011;4574;51.072;17.174;2022-07-24T03:25:58;12.23;;;11.03;;
9076;SDS011;4574;51.072;17.174;2022-07-24T03:28:27;11.57;;;10.37;;
9076;SDS011;4574;51.072;17.174;2022-07-24T03:30:55;13.47;;;10.70;;
9076;SDS011;4574;51.072;17.174;2022-07-24T03:33:24;11.47;;;10.37;;
9076;SDS011;4574;51.072;17.174;2022-07-24T03:35:52;13.17;;;10.20;;
9076;SDS011;4574;51.072;17.174;2022-07-24T03:38:21;12.90;;;10.27;;
9076;SDS011;4574;51.072;17.174;2022-07-24T03:40:51;12.30;;;10.03;;
9076;SDS011;4574;51.072;17.174;2022-07-24T03:43:19;10.97;;;9.67;;
9076;SDS011;4574;51.072;17.174;2022-07-24T03:45:48;12.40;;;10.07;;
9076;SDS011;4574;51.072;17.174;2022-07-24T03:48:17;12.40;;;10.37;;
9076;SDS011;4574;51.072;17.174;2022-07-24T03:50:45;11.97;;;9.27;;
9076;SDS011;4574;51.072;17.174;2022-07-24T03:53:14;10.77;;;9.67;;
9076;SDS011;4574;51.072;17.174;2022-07-24T03:55:42;10.57;;;9.47;;
9076;SDS011;4574;51.072;17.174;2022-07-24T03:58:12;10.07;;;9.03;;
9076;SDS011;4574;51.072;17.174;2022-07-24T04:00:41;10.90;;;9.30;;
9076;SDS011;4574;51.072;17.174;2022-07-24T04:03:09;10.03;;;9.00;;
9076;SDS011;4574;51.072;17.174;2022-07-24T04:05:38;10.43;;;8.93;;
9076;SDS011;4574;51.072;17.174;2022-07-24T04:08:17;9.50;;;8.60;;
9076;SDS011;4574;51.072;17.174;2022-07-24T04:10:45;9.63;;;8.73;;
9076;SDS011;4574;51.072;17.174;2022-07-24T04:13:16;9.07;;;8.17;;
9076;SDS011;4574;51.072;17.174;2022-07-24T04:15:44;10.67;;;9.77;;
9076;SDS011;4574;51.072;17.174;2022-07-24T04:18:13;10.10;;;8.77;;
9076;SDS011;4574;51.072;17.174;2022-07-24T04:20:41;9.80;;;8.67;;
9076;SDS011;4574;51.072;17.174;2022-07-24T04:23:10;12.13;;;9.30;;
9076;SDS011;4574;51.072;17.174;2022-07-24T04:25:39;11.93;;;8.30;;
9076;SDS011;4574;51.072;17.174;2022-07-24T04:28:07;9.80;;;8.90;;
9076;SDS011;4574;51.072;17.174;2022-07-24T04:30:37;13.07;;;8.83;;
9076;SDS011;4574;51.072;17.174;2022-07-24T04:33:06;10.47;;;8.20;;
9076;SDS011;4574;51.072;17.174;2022-07-24T04:35:34;9.30;;;7.90;;
9076;SDS011;4574;51.072;17.174;2022-07-24T04:38:03;10.57;;;8.53;;
9076;SDS011;4574;51.072;17.174;2022-07-24T04:40:33;9.13;;;8.23;;
9076;SDS011;4574;51.072;17.174;2022-07-24T04:43:02;9.53;;;7.83;;
9076;SDS011;4574;51.072;17.174;2022-07-24T04:45:30;8.67;;;7.87;;
9076;SDS011;4574;51.072;17.174;2022-07-24T04:48:02;9.93;;;7.73;;
9076;SDS011;4574;51.072;17.174;2022-07-24T04:50:31;8.90;;;7.53;;
9076;SDS011;4574;51.072;17.174;2022-07-24T04:53:00;9.20;;;7.70;;
9076;SDS011;4574;51.072;17.174;2022-07-24T04:55:29;9.93;;;7.13;;
9076;SDS011;4574;51.072;17.174;2022-07-24T04:57:57;9.27;;;7.00;;
9076;SDS011;4574;51.072;17.174;2022-07-24T05:00:26;9.43;;;7.40;;
9076;SDS011;4574;51.072;17.174;2022-07-24T05:02:54;8.33;;;7.53;;
9076;SDS011;4574;51.072;17.174;2022-07-24T05:05:24;8.50;;;7.37;;
9076;SDS011;4574;51.072;17.174;2022-07-24T05:07:53;10.93;;;7.90;;
9076;SDS011;4574;51.072;17.174;2022-07-24T05:10:21;8.17;;;6.97;;
9076;SDS011;4574;51.072;17.174;2022-07-24T05:12:50;7.80;;;7.00;;
9076;SDS011;4574;51.072;17.174;2022-07-24T05:15:18;7.30;;;6.60;;
9076;SDS011;4574;51.072;17.174;2022-07-24T05:17:47;6.80;;;6.20;;
9076;SDS011;4574;51.072;17.174;2022-07-24T05:20:17;6.67;;;5.57;;
9076;SDS011;4574;51.072;17.174;2022-07-24T05:22:47;7.53;;;5.73;;
9076;SDS011;4574;51.072;17.174;2022-07-24T05:25:16;8.40;;;5.50;;
9076;SDS011;4574;51.072;17.174;2022-07-24T05:27:45;7.50;;;5.30;;
9076;SDS011;4574;51.072;17.174;2022-07-24T05:30:13;6.57;;;4.93;;
9076;SDS011;4574;51.072;17.174;2022-07-24T05:32:42;8.13;;;5.27;;
9076;SDS011;4574;51.072;17.174;2022-07-24T05:35:10;4.63;;;4.23;;
9076;SDS011;4574;51.072;17.174;2022-07-24T05:37:39;8.27;;;4.77;;
9076;SDS011;4574;51.072;17.174;2022-07-24T05:40:09;4.60;;;4.10;;
9076;SDS011;4574;51.072;17.174;2022-07-24T05:42:39;4.80;;;3.57;;
9076;SDS011;4574;51.072;17.174;2022-07-24T05:45:07;4.00;;;3.70;;
9076;SDS011;4574;51.072;17.174;2022-07-24T05:47:36;3.77;;;3.20;;
9076;SDS011;4574;51.072;17.174;2022-07-24T05:50:06;5.83;;;3.67;;
9076;SDS011;4574;51.072;17.174;2022-07-24T05:52:35;3.13;;;2.90;;
9076;SDS011;4574;51.072;17.174;2022-07-24T05:55:05;3.30;;;3.03;;
9076;SDS011;4574;51.072;17.174;2022-07-24T05:57:44;5.03;;;3.73;;
9076;SDS011;4574;51.072;17.174;2022-07-24T06:00:13;4.27;;;3.17;;
9076;SDS011;4574;51.072;17.174;2022-07-24T06:02:49;4.27;;;2.97;;
9076;SDS011;4574;51.072;17.174;2022-07-24T06:05:18;3.50;;;2.97;;
9076;SDS011;4574;51.072;17.174;2022-07-24T06:07:46;3.67;;;2.80;;
9076;SDS011;4574;51.072;17.174;2022-07-24T06:10:15;2.90;;;2.67;;
9076;SDS011;4574;51.072;17.174;2022-07-24T06:12:48;4.17;;;2.70;;
9076;SDS011;4574;51.072;17.174;2022-07-24T06:15:16;5.10;;;2.83;;
9076;SDS011;4574;51.072;17.174;2022-07-24T06:17:45;4.53;;;2.80;;
9076;SDS011;4574;51.072;17.174;2022-07-24T06:20:13;3.33;;;2.73;;
9076;SDS011;4574;51.072;17.174;2022-07-24T06:22:43;3.23;;;2.93;;
9076;SDS011;4574;51.072;17.174;2022-07-24T06:25:15;3.10;;;2.60;;
9076;SDS011;4574;51.072;17.174;2022-07-24T06:27:44;2.97;;;2.67;;
9076;SDS011;4574;51.072;17.174;2022-07-24T06:30:17;3.73;;;2.93;;
9076;SDS011;4574;51.072;17.174;2022-07-24T06:32:48;4.10;;;2.83;;
9076;SDS011;4574;51.072;17.174;2022-07-24T06:35:17;4.80;;;2.67;;
9076;SDS011;4574;51.072;17.174;2022-07-24T06:37:46;3.83;;;2.70;;
9076;SDS011;4574;51.072;17.174;2022-07-24T06:40:15;3.10;;;2.70;;
9076;SDS011;4574;51.072;17.174;2022-07-24T06:42:44;4.23;;;2.87;;
9076;SDS011;4574;51.072;17.174;2022-07-24T06:45:15;4.17;;;2.67;;
9076;SDS011;4574;51.072;17.174;2022-07-24T06:47:45;4.70;;;2.70;;
9076;SDS011;4574;51.072;17.174;2022-07-24T06:50:13;2.57;;;2.20;;
9076;SDS011;4574;51.072;17.174;2022-07-24T06:52:43;2.83;;;2.40;;
9076;SDS011;4574;51.072;17.174;2022-07-24T06:55:12;4.30;;;2.47;;
9076;SDS011;4574;51.072;17.174;2022-07-24T06:57:40;4.47;;;2.50;;
9076;SDS011;4574;51.072;17.174;2022-07-24T07:00:09;2.50;;;2.30;;
9076;SDS011;4574;51.072;17.174;2022-07-24T07:02:40;3.63;;;2.50;;
9076;SDS011;4574;51.072;17.174;2022-07-24T07:05:08;2.87;;;2.37;;
9076;SDS011;4574;51.072;17.174;2022-07-24T07:07:37;2.50;;;2.30;;
9076;SDS011;4574;51.072;17.174;2022-07-24T07:10:06;2.80;;;2.37;;
9076;SDS011;4574;51.072;17.174;2022-07-24T07:12:36;2.50;;;2.30;;
9076;SDS011;4574;51.072;17.174;2022-07-24T07:15:07;3.00;;;2.50;;
9076;SDS011;4574;51.072;17.174;2022-07-24T07:17:37;2.50;;;2.30;;
9076;SDS011;4574;51.072;17.174;2022-07-24T07:20:08;2.33;;;2.10;;
9076;SDS011;4574;51.072;17.174;2022-07-24T07:22:38;4.90;;;2.13;;
9076;SDS011;4574;51.072;17.174;2022-07-24T07:25:08;1.87;;;1.53;;
9076;SDS011;4574;51.072;17.174;2022-07-24T07:27:37;2.07;;;1.50;;
9076;SDS011;4574;51.072;17.174;2022-07-24T07:30:07;2.03;;;1.30;;
9076;SDS011;4574;51.072;17.174;2022-07-24T07:32:39;2.37;;;1.57;;
9076;SDS011;4574;51.072;17.174;2022-07-24T07:35:09;4.33;;;1.60;;
9076;SDS011;4574;51.072;17.174;2022-07-24T07:37:47;1.97;;;1.73;;
9076;SDS011;4574;51.072;17.174;2022-07-24T07:40:16;1.87;;;1.60;;
9076;SDS011;4574;51.072;17.174;2022-07-24T07:42:44;1.50;;;1.20;;
9076;SDS011;4574;51.072;17.174;2022-07-24T07:45:13;3.70;;;1.60;;
9076;SDS011;4574;51.072;17.174;2022-07-24T07:47:41;1.53;;;1.40;;
9076;SDS011;4574;51.072;17.174;2022-07-24T07:50:12;3.87;;;1.43;;
9076;SDS011;4574;51.072;17.174;2022-07-24T07:52:40;1.97;;;1.20;;
9076;SDS011;4574;51.072;17.174;2022-07-24T07:55:10;1.60;;;1.47;;
9076;SDS011;4574;51.072;17.174;2022-07-24T07:57:38;1.87;;;1.20;;
9076;SDS011;4574;51.072;17.174;2022-07-24T08:00:28;1.47;;;1.37;;
9076;SDS011;4574;51.072;17.174;2022-07-24T08:02:57;1.63;;;1.20;;
9076;SDS011;4574;51.072;17.174;2022-07-24T08:05:27;1.43;;;1.20;;
9076;SDS011;4574;51.072;17.174;2022-07-24T08:07:56;2.53;;;1.30;;
9076;SDS011;4574;51.072;17.174;2022-07-24T08:10:24;2.43;;;1.17;;
9076;SDS011;4574;51.072;17.174;2022-07-24T08:12:53;2.00;;;1.10;;
9076;SDS011;4574;51.072;17.174;2022-07-24T08:15:22;4.47;;;1.47;;
9076;SDS011;4574;51.072;17.174;2022-07-24T08:17:51;3.70;;;1.23;;
9076;SDS011;4574;51.072;17.174;2022-07-24T08:20:20;1.67;;;1.23;;
9076;SDS011;4574;51.072;17.174;2022-07-24T08:22:50;1.27;;;1.17;;
9076;SDS011;4574;51.072;17.174;2022-07-24T08:25:19;2.17;;;1.17;;
9076;SDS011;4574;51.072;17.174;2022-07-24T08:27:48;1.60;;;1.00;;
9076;SDS011;4574;51.072;17.174;2022-07-24T08:30:17;1.23;;;1.10;;
9076;SDS011;4574;51.072;17.174;2022-07-24T08:32:45;2.60;;;1.20;;
9076;SDS011;4574;51.072;17.174;2022-07-24T08:35:14;2.00;;;1.20;;
9076;SDS011;4574;51.072;17.174;2022-07-24T08:37:43;2.60;;;1.27;;
9076;SDS011;4574;51.072;17.174;2022-07-24T08:40:13;3.53;;;1.40;;
9076;SDS011;4574;51.072;17.174;2022-07-24T08:42:42;1.30;;;1.20;;
9076;SDS011;4574;51.072;17.174;2022-07-24T08:45:11;1.67;;;1.33;;
9076;SDS011;4574;51.072;17.174;2022-07-24T08:47:40;1.20;;;1.10;;
9076;SDS011;4574;51.072;17.174;2022-07-24T08:50:09;2.03;;;1.20;;
9076;SDS011;4574;51.072;17.174;2022-07-24T08:52:38;2.80;;;1.37;;
9076;SDS011;4574;51.072;17.174;2022-07-24T08:55:12;2.87;;;1.20;;
9076;SDS011;4574;51.072;17.174;2022-07-24T08:57:41;2.27;;;1.20;;
9076;SDS011;4574;51.072;17.174;2022-07-24T09:00:10;2.37;;;1.20;;
9076;SDS011;4574;51.072;17.174;2022-07-24T09:02:40;2.50;;;1.37;;
9076;SDS011;4574;51.072;17.174;2022-07-24T09:05:09;4.27;;;1.70;;
9076;SDS011;4574;51.072;17.174;2022-07-24T09:07:37;2.50;;;1.40;;
9076;SDS011;4574;51.072;17.174;2022-07-24T09:10:07;1.50;;;1.40;;
9076;SDS011;4574;51.072;17.174;2022-07-24T09:12:39;1.50;;;1.40;;
9076;SDS011;4574;51.072;17.174;2022-07-24T09:15:13;3.17;;;1.13;;
9076;SDS011;4574;51.072;17.174;2022-07-24T09:17:49;1.60;;;1.20;;
9076;SDS011;4574;51.072;17.174;2022-07-24T09:20:20;1.50;;;1.40;;
9076;SDS011;4574;51.072;17.174;2022-07-24T09:22:50;1.37;;;1.27;;
9076;SDS011;4574;51.072;17.174;2022-07-24T09:25:19;5.07;;;1.60;;
9076;SDS011;4574;51.072;17.174;2022-07-24T09:27:51;1.20;;;1.10;;
9076;SDS011;4574;51.072;17.174;2022-07-24T09:30:22;2.10;;;1.40;;
9076;SDS011;4574;51.072;17.174;2022-07-24T09:32:53;2.17;;;1.87;;
9076;SDS011;4574;51.072;17.174;2022-07-24T09:35:24;1.97;;;1.30;;
9076;SDS011;4574;51.072;17.174;2022-07-24T09:37:58;2.13;;;1.20;;
9076;SDS011;4574;51.072;17.174;2022-07-24T09:40:29;1.53;;;1.40;;
9076;SDS011;4574;51.072;17.174;2022-07-24T09:43:20;1.67;;;1.47;;
9076;SDS011;4574;51.072;17.174;2022-07-24T09:46:00;2.00;;;1.77;;
9076;SDS011;4574;51.072;17.174;2022-07-24T09:48:34;1.83;;;1.30;;
9076;SDS011;4574;51.072;17.174;2022-07-24T09:51:05;1.20;;;1.17;;
9076;SDS011;4574;51.072;17.174;2022-07-24T09:53:39;0.90;;;0.90;;
9076;SDS011;4574;51.072;17.174;2022-07-24T09:56:10;1.50;;;0.90;;
9076;SDS011;4574;51.072;17.174;2022-07-24T09:58:47;1.93;;;1.20;;
9076;SDS011;4574;51.072;17.174;2022-07-24T10:01:18;2.20;;;0.90;;
9076;SDS011;4574;51.072;17.174;2022-07-24T10:03:48;1.20;;;0.90;;
9076;SDS011;4574;51.072;17.174;2022-07-24T10:06:19;3.10;;;0.80;;
9076;SDS011;4574;51.072;17.174;2022-07-24T10:08:49;1.57;;;0.80;;
9076;SDS011;4574;51.072;17.174;2022-07-24T10:11:18;2.30;;;0.90;;
9076;SDS011;4574;51.072;17.174;2022-07-24T10:13:50;2.90;;;0.70;;
9076;SDS011;4574;51.072;17.174;2022-07-24T10:16:29;0.93;;;0.90;;
9076;SDS011;4574;51.072;17.174;2022-07-24T10:18:59;0.77;;;0.77;;
9076;SDS011;4574;51.072;17.174;2022-07-24T10:21:31;0.80;;;0.80;;
9076;SDS011;4574;51.072;17.174;2022-07-24T10:24:11;0.87;;;0.77;;
9076;SDS011;4574;51.072;17.174;2022-07-24T10:26:51;0.80;;;0.80;;
9076;SDS011;4574;51.072;17.174;2022-07-24T10:29:24;1.23;;;0.80;;
9076;SDS011;4574;51.072;17.174;2022-07-24T10:31:53;0.70;;;0.70;;
9076;SDS011;4574;51.072;17.174;2022-07-24T10:34:25;0.80;;;0.80;;
9076;SDS011;4574;51.072;17.174;2022-07-24T10:37:03;0.97;;;0.60;;
9076;SDS011;4574;51.072;17.174;2022-07-24T10:39:41;3.43;;;0.80;;
9076;SDS011;4574;51.072;17.174;2022-07-24T10:42:15;1.93;;;0.77;;
9076;SDS011;4574;51.072;17.174;2022-07-24T10:44:46;0.67;;;0.67;;
9076;SDS011;4574;51.072;17.174;2022-07-24T10:47:44;1.17;;;0.83;;
9076;SDS011;4574;51.072;17.174;2022-07-24T10:50:13;2.30;;;0.80;;
9076;SDS011;4574;51.072;17.174;2022-07-24T10:52:43;1.93;;;0.80;;
9076;SDS011;4574;51.072;17.174;2022-07-24T10:55:21;3.77;;;0.90;;
9076;SDS011;4574;51.072;17.174;2022-07-24T10:58:04;0.87;;;0.77;;
9076;SDS011;4574;51.072;17.174;2022-07-24T11:00:43;0.77;;;0.77;;
9076;SDS011;4574;51.072;17.174;2022-07-24T11:03:17;0.80;;;0.67;;
9076;SDS011;4574;51.072;17.174;2022-07-24T11:06:02;2.70;;;0.90;;
9076;SDS011;4574;51.072;17.174;2022-07-24T11:08:32;1.47;;;0.80;;
9076;SDS011;4574;51.072;17.174;2022-07-24T11:11:06;1.33;;;1.03;;
9076;SDS011;4574;51.072;17.174;2022-07-24T11:13:40;4.17;;;0.83;;
9076;SDS011;4574;51.072;17.174;2022-07-24T11:16:21;0.90;;;0.90;;
9076;SDS011;4574;51.072;17.174;2022-07-24T11:22:05;0.93;;;0.70;;
9076;SDS011;4574;51.072;17.174;2022-07-24T11:24:41;1.53;;;0.90;;
9076;SDS011;4574;51.072;17.174;2022-07-24T11:27:40;1.63;;;0.70;;
9076;SDS011;4574;51.072;17.174;2022-07-24T11:30:10;0.80;;;0.80;;
9076;SDS011;4574;51.072;17.174;2022-07-24T11:32:41;1.10;;;0.70;;
9076;SDS011;4574;51.072;17.174;2022-07-24T11:35:10;0.80;;;0.80;;
9076;SDS011;4574;51.072;17.174;2022-07-24T11:37:40;1.13;;;0.80;;
9076;SDS011;4574;51.072;17.174;2022-07-24T11:40:13;2.97;;;1.03;;
9076;SDS011;4574;51.072;17.174;2022-07-24T11:42:43;0.80;;;0.80;;
9076;SDS011;4574;51.072;17.174;2022-07-24T11:45:12;2.63;;;0.80;;
9076;SDS011;4574;51.072;17.174;2022-07-24T11:47:41;0.63;;;0.63;;
9076;SDS011;4574;51.072;17.174;2022-07-24T11:50:10;0.80;;;0.80;;
9076;SDS011;4574;51.072;17.174;2022-07-24T11:52:40;0.83;;;0.80;;
9076;SDS011;4574;51.072;17.174;2022-07-24T11:55:10;0.93;;;0.90;;
9076;SDS011;4574;51.072;17.174;2022-07-24T11:57:43;1.37;;;1.00;;
9076;SDS011;4574;51.072;17.174;2022-07-24T12:00:33;3.53;;;0.90;;
9076;SDS011;4574;51.072;17.174;2022-07-24T12:03:03;0.90;;;0.90;;
9076;SDS011;4574;51.072;17.174;2022-07-24T12:05:35;0.87;;;0.87;;
9076;SDS011;4574;51.072;17.174;2022-07-24T12:08:14;0.80;;;0.80;;
9076;SDS011;4574;51.072;17.174;2022-07-24T12:10:44;1.07;;;1.00;;
9076;SDS011;4574;51.072;17.174;2022-07-24T12:13:16;1.00;;;0.70;;
9076;SDS011;4574;51.072;17.174;2022-07-24T12:15:45;0.90;;;0.90;;
9076;SDS011;4574;51.072;17.174;2022-07-24T12:18:15;0.83;;;0.83;;
9076;SDS011;4574;51.072;17.174;2022-07-24T12:20:57;1.37;;;1.13;;
9076;SDS011;4574;51.072;17.174;2022-07-24T12:23:27;2.37;;;1.57;;
9076;SDS011;4574;51.072;17.174;2022-07-24T12:25:56;1.47;;;1.10;;
9076;SDS011;4574;51.072;17.174;2022-07-24T12:28:27;2.23;;;1.00;;
9076;SDS011;4574;51.072;17.174;2022-07-24T12:30:55;1.27;;;1.10;;
9076;SDS011;4574;51.072;17.174;2022-07-24T12:33:26;4.13;;;1.40;;
9076;SDS011;4574;51.072;17.174;2022-07-24T12:35:56;2.27;;;2.07;;
9076;SDS011;4574;51.072;17.174;2022-07-24T12:38:27;2.40;;;2.20;;
9076;SDS011;4574;51.072;17.174;2022-07-24T12:41:06;2.20;;;2.00;;
9076;SDS011;4574;51.072;17.174;2022-07-24T12:43:45;3.10;;;1.77;;
9076;SDS011;4574;51.072;17.174;2022-07-24T12:46:15;2.30;;;2.10;;
9076;SDS011;4574;51.072;17.174;2022-07-24T12:49:00;2.40;;;2.20;;
9076;SDS011;4574;51.072;17.174;2022-07-24T12:51:43;2.20;;;2.10;;
9076;SDS011;4574;51.072;17.174;2022-07-24T12:54:16;2.73;;;2.53;;
9076;SDS011;4574;51.072;17.174;2022-07-24T12:56:47;3.67;;;2.40;;
9076;SDS011;4574;51.072;17.174;2022-07-24T12:59:21;3.10;;;1.80;;
9076;SDS011;4574;51.072;17.174;2022-07-24T13:01:51;2.40;;;1.80;;
9076;SDS011;4574;51.072;17.174;2022-07-24T13:04:23;1.93;;;1.60;;
9076;SDS011;4574;51.072;17.174;2022-07-24T13:06:53;1.37;;;1.20;;
9076;SDS011;4574;51.072;17.174;2022-07-24T13:09:23;1.40;;;1.23;;
9076;SDS011;4574;51.072;17.174;2022-07-24T13:11:53;4.47;;;1.10;;
9076;SDS011;4574;51.072;17.174;2022-07-24T13:14:23;1.73;;;1.30;;
9076;SDS011;4574;51.072;17.174;2022-07-24T13:17:00;1.60;;;1.50;;
9076;SDS011;4574;51.072;17.174;2022-07-24T13:19:32;0.90;;;0.90;;
9076;SDS011;4574;51.072;17.174;2022-07-24T13:22:01;0.90;;;0.90;;
9076;SDS011;4574;51.072;17.174;2022-07-24T13:24:29;1.57;;;1.17;;
9076;SDS011;4574;51.072;17.174;2022-07-24T13:26:59;1.70;;;1.27;;
9076;SDS011;4574;51.072;17.174;2022-07-24T13:29:28;1.17;;;1.00;;
9076;SDS011;4574;51.072;17.174;2022-07-24T13:31:57;1.90;;;1.00;;
9076;SDS011;4574;51.072;17.174;2022-07-24T13:34:25;0.80;;;0.80;;
9076;SDS011;4574;51.072;17.174;2022-07-24T13:36:58;0.80;;;0.80;;
9076;SDS011;4574;51.072;17.174;2022-07-24T13:39:26;2.40;;;0.70;;
9076;SDS011;4574;51.072;17.174;2022-07-24T13:41:55;1.20;;;0.80;;
9076;SDS011;4574;51.072;17.174;2022-07-24T13:44:23;3.30;;;0.80;;
9076;SDS011;4574;51.072;17.174;2022-07-24T13:46:52;1.17;;;0.90;;
9076;SDS011;4574;51.072;17.174;2022-07-24T13:49:23;1.70;;;1.10;;
9076;SDS011;4574;51.072;17.174;2022-07-24T13:51:51;0.77;;;0.60;;
9076;SDS011;4574;51.072;17.174;2022-07-24T13:54:21;0.90;;;0.90;;
9076;SDS011;4574;51.072;17.174;2022-07-24T13:56:50;2.73;;;0.80;;
9076;SDS011;4574;51.072;17.174;2022-07-24T13:59:20;0.70;;;0.70;;
9076;SDS011;4574;51.072;17.174;2022-07-24T14:01:49;1.03;;;0.70;;
9076;SDS011;4574;51.072;17.174;2022-07-24T14:04:17;1.47;;;0.90;;
9076;SDS011;4574;51.072;17.174;2022-07-24T14:06:52;0.90;;;0.60;;
9076;SDS011;4574;51.072;17.174;2022-07-24T14:09:23;1.90;;;0.70;;
9076;SDS011;4574;51.072;17.174;2022-07-24T14:11:52;2.00;;;0.80;;
9076;SDS011;4574;51.072;17.174;2022-07-24T14:14:21;0.80;;;0.80;;
9076;SDS011;4574;51.072;17.174;2022-07-24T14:16:50;2.20;;;0.80;;
9076;SDS011;4574;51.072;17.174;2022-07-24T14:19:19;1.37;;;0.70;;
9076;SDS011;4574;51.072;17.174;2022-07-24T14:21:47;0.87;;;0.67;;
9076;SDS011;4574;51.072;17.174;2022-07-24T14:24:16;0.90;;;0.70;;
9076;SDS011;4574;51.072;17.174;2022-07-24T14:26:48;2.03;;;0.80;;
9076;SDS011;4574;51.072;17.174;2022-07-24T14:29:21;0.87;;;0.70;;
9076;SDS011;4574;51.072;17.174;2022-07-24T14:31:53;0.77;;;0.73;;
9076;SDS011;4574;51.072;17.174;2022-07-24T14:34:22;1.23;;;0.70;;
9076;SDS011;4574;51.072;17.174;2022-07-24T14:36:50;1.80;;;0.77;;
9076;SDS011;4574;51.072;17.174;2022-07-24T14:39:19;1.00;;;0.60;;
9076;SDS011;4574;51.072;17.174;2022-07-24T14:41:49;1.03;;;0.80;;
9076;SDS011;4574;51.072;17.174;2022-07-24T14:44:18;0.70;;;0.70;;
9076;SDS011;4574;51.072;17.174;2022-07-24T14:46:47;4.20;;;0.90;;
9076;SDS011;4574;51.072;17.174;2022-07-24T14:49:15;4.37;;;0.90;;
9076;SDS011;4574;51.072;17.174;2022-07-24T14:51:44;1.43;;;0.80;;
9076;SDS011;4574;51.072;17.174;2022-07-24T14:54:12;0.70;;;0.70;;
9076;SDS011;4574;51.072;17.174;2022-07-24T14:56:41;0.80;;;0.70;;
9076;SDS011;4574;51.072;17.174;2022-07-24T14:59:11;1.23;;;0.70;;
9076;SDS011;4574;51.072;17.174;2022-07-24T15:01:46;1.20;;;0.67;;
9076;SDS011;4574;51.072;17.174;2022-07-24T15:04:15;1.23;;;0.90;;
9076;SDS011;4574;51.072;17.174;2022-07-24T15:06:43;0.70;;;0.70;;
9076;SDS011;4574;51.072;17.174;2022-07-24T15:09:12;0.83;;;0.80;;
9076;SDS011;4574;51.072;17.174;2022-07-24T15:11:41;0.90;;;0.60;;
9076;SDS011;4574;51.072;17.174;2022-07-24T15:14:11;1.53;;;0.70;;
9076;SDS011;4574;51.072;17.174;2022-07-24T15:16:40;0.77;;;0.77;;
9076;SDS011;4574;51.072;17.174;2022-07-24T15:19:08;0.67;;;0.67;;